KAUM

Details ICAO KAUM
Name AUSTIN MUNI
Region United States
Timezone America/Chicago (UTC-6.0)
Plans Departing 19
Arriving 23
Stats Elevation 1,233 ft / 376 m (AMSL)
Location 43.662633° -92.932931°
Runways 1
Magnetic Variation 0.080° E
Sunrise 2017-12-15 13:39:57 UTC / 2017-12-15 07:39:57 Local
Sunset 2017-12-15 22:36:51 UTC / 2017-12-15 16:36:51 Local
Advertisement - Login to hide

Runways

ID Width Length Bearing (true) Bearing (mag) Surface Threshold Offset Overrun Length
17 100 ft / 30 m 5,806 ft / 1,770 m 172.16° 172.08° Concrete 0 ft / 0 m 0 ft / 0 m
35 100 ft / 30 m 5,806 ft / 1,770 m 352.16° 352.08° Concrete 0 ft / 0 m 0 ft / 0 m

Map

Weather


0- 5 10 15 20 25 30 35+ Temperature / ° C

Clouds and Precipitation
Forecast for 2017-12-15 12:00 UTC. Updated an hour ago

Ground ~20,000 ft ~40,000 ft Winds

METAR

KAUM 151206Z AUTO 25003KT 10SM BKN017 OVC025 M04/M06 A2990 RMK AO2

TAF

Not found

Frequencies

Recorded 119.02 MHz AWOS 3
Approach 119.80 MHz ROCHESTER APP/DEP
Unicom 122.70 MHz CTAF/UNICOM
Warning: Do not use this data for real-world aviation or navigation. No guarantee of current accuracy is given.